sensor_id;sensor_type;location;lat;lon;timestamp;pressure;altitude;pressure_sealevel;temperature;humidity
56811;BME280;42691;47.234;27.494;2022-11-03T00:02:17;100057.38;;;17.60;100.00
56811;BME280;42691;47.234;27.494;2022-11-03T00:04:42;100061.59;;;17.62;100.00
56811;BME280;42691;47.234;27.494;2022-11-03T00:07:08;100067.06;;;17.59;100.00
56811;BME280;42691;47.234;27.494;2022-11-03T00:09:34;100066.22;;;17.59;100.00
56811;BME280;42691;47.234;27.494;2022-11-03T00:12:00;100078.66;;;17.57;100.00
56811;BME280;42691;47.234;27.494;2022-11-03T00:14:26;100082.75;;;17.61;100.00
56811;BME280;42691;47.234;27.494;2022-11-03T00:16:52;100079.28;;;17.60;100.00
56811;BME280;42691;47.234;27.494;2022-11-03T00:19:17;100079.50;;;17.57;100.00
56811;BME280;42691;47.234;27.494;2022-11-03T00:21:43;100081.50;;;17.54;100.00
56811;BME280;42691;47.234;27.494;2022-11-03T00:24:10;100079.72;;;17.54;100.00
56811;BME280;42691;47.234;27.494;2022-11-03T00:26:36;100080.56;;;17.55;100.00
56811;BME280;42691;47.234;27.494;2022-11-03T00:29:07;100083.19;;;17.55;100.00
56811;BME280;42691;47.234;27.494;2022-11-03T00:31:34;100080.78;;;17.52;100.00
56811;BME280;42691;47.234;27.494;2022-11-03T00:34:01;100078.34;;;17.48;100.00
56811;BME280;42691;47.234;27.494;2022-11-03T00:36:28;100084.88;;;17.43;100.00
56811;BME280;42691;47.234;27.494;2022-11-03T00:38:55;100090.84;;;17.45;100.00
56811;BME280;42691;47.234;27.494;2022-11-03T00:41:22;100086.44;;;17.45;100.00
56811;BME280;42691;47.234;27.494;2022-11-03T00:43:48;100081.94;;;17.47;100.00
56811;BME280;42691;47.234;27.494;2022-11-03T00:46:14;100072.66;;;17.42;100.00
56811;BME280;42691;47.234;27.494;2022-11-03T00:48:40;100092.53;;;17.46;100.00
56811;BME280;42691;47.234;27.494;2022-11-03T00:51:17;100103.16;;;17.44;100.00
56811;BME280;42691;47.234;27.494;2022-11-03T00:53:46;100098.84;;;17.43;100.00
56811;BME280;42691;47.234;27.494;2022-11-03T00:56:16;100093.59;;;17.43;100.00
56811;BME280;42691;47.234;27.494;2022-11-03T00:58:43;100091.50;;;17.48;100.00
56811;BME280;42691;47.234;27.494;2022-11-03T01:01:13;100074.88;;;17.48;100.00
56811;BME280;42691;47.234;27.494;2022-11-03T01:03:41;100081.19;;;17.45;100.00
56811;BME280;42691;47.234;27.494;2022-11-03T01:06:27;100087.72;;;17.40;100.00
56811;BME280;42691;47.234;27.494;2022-11-03T01:09:11;100082.78;;;17.35;100.00
56811;BME280;42691;47.234;27.494;2022-11-03T01:11:36;100086.25;;;17.36;100.00
56811;BME280;42691;47.234;27.494;2022-11-03T01:14:13;100089.72;;;17.36;100.00
56811;BME280;42691;47.234;27.494;2022-11-03T01:16:39;100085.63;;;17.32;100.00
56811;BME280;42691;47.234;27.494;2022-11-03T01:19:05;100069.03;;;17.19;100.00
56811;BME280;42691;47.234;27.494;2022-11-03T01:21:31;100087.72;;;17.27;100.00
56811;BME280;42691;47.234;27.494;2022-11-03T01:23:59;100086.16;;;17.25;100.00
56811;BME280;42691;47.234;27.494;2022-11-03T01:26:26;100087.94;;;17.24;100.00
56811;BME280;42691;47.234;27.494;2022-11-03T01:28:51;100094.88;;;17.25;100.00
56811;BME280;42691;47.234;27.494;2022-11-03T01:31:19;100088.91;;;17.23;100.00
56811;BME280;42691;47.234;27.494;2022-11-03T01:33:45;100089.84;;;17.22;100.00
56811;BME280;42691;47.234;27.494;2022-11-03T01:36:13;100090.56;;;17.24;100.00
56811;BME280;42691;47.234;27.494;2022-11-03T01:38:39;100083.41;;;17.26;100.00
56811;BME280;42691;47.234;27.494;2022-11-03T01:41:08;100071.75;;;17.17;100.00
56811;BME280;42691;47.234;27.494;2022-11-03T01:43:36;100082.69;;;17.24;100.00
56811;BME280;42691;47.234;27.494;2022-11-03T01:46:19;100082.69;;;17.24;100.00
56811;BME280;42691;47.234;27.494;2022-11-03T01:51:22;100084.59;;;17.22;100.00
56811;BME280;42691;47.234;27.494;2022-11-03T01:53:51;100088.06;;;17.23;100.00
56811;BME280;42691;47.234;27.494;2022-11-03T01:56:18;100066.28;;;17.08;100.00
56811;BME280;42691;47.234;27.494;2022-11-03T01:58:47;100086.47;;;17.20;100.00
56811;BME280;42691;47.234;27.494;2022-11-03T02:01:14;100088.38;;;17.18;100.00
56811;BME280;42691;47.234;27.494;2022-11-03T02:03:45;100077.13;;;17.16;100.00
56811;BME280;42691;47.234;27.494;2022-11-03T02:06:12;100093.63;;;17.18;100.00
56811;BME280;42691;47.234;27.494;2022-11-03T02:08:53;100076.59;;;17.11;100.00
56811;BME280;42691;47.234;27.494;2022-11-03T02:11:21;100085.00;;;17.16;100.00
56811;BME280;42691;47.234;27.494;2022-11-03T02:14:12;100081.66;;;17.14;100.00
56811;BME280;42691;47.234;27.494;2022-11-03T02:16:40;100092.16;;;17.14;100.00
56811;BME280;42691;47.234;27.494;2022-11-03T02:22:38;100086.69;;;17.17;100.00
56811;BME280;42691;47.234;27.494;2022-11-03T02:27:51;100101.63;;;17.16;100.00
56811;BME280;42691;47.234;27.494;2022-11-03T02:30:16;100098.38;;;17.13;100.00
56811;BME280;42691;47.234;27.494;2022-11-03T02:32:54;100114.44;;;17.08;100.00
56811;BME280;42691;47.234;27.494;2022-11-03T02:35:32;100107.38;;;17.09;100.00
56811;BME280;42691;47.234;27.494;2022-11-03T02:38:02;100109.09;;;17.10;100.00
56811;BME280;42691;47.234;27.494;2022-11-03T02:40:36;100088.66;;;17.01;100.00
56811;BME280;42691;47.234;27.494;2022-11-03T02:43:04;100117.72;;;17.12;100.00
56811;BME280;42691;47.234;27.494;2022-11-03T02:45:30;100104.56;;;17.12;100.00
56811;BME280;42691;47.234;27.494;2022-11-03T02:47:58;100108.31;;;17.08;100.00
56811;BME280;42691;47.234;27.494;2022-11-03T02:50:29;100111.63;;;17.11;100.00
56811;BME280;42691;47.234;27.494;2022-11-03T02:52:55;100111.31;;;17.16;100.00
56811;BME280;42691;47.234;27.494;2022-11-03T03:00:32;100106.25;;;17.13;100.00
56811;BME280;42691;47.234;27.494;2022-11-03T03:03:09;100118.25;;;17.17;100.00
56811;BME280;42691;47.234;27.494;2022-11-03T03:05:39;100117.28;;;17.18;100.00
56811;BME280;42691;47.234;27.494;2022-11-03T03:08:09;100107.72;;;17.17;100.00
56811;BME280;42691;47.234;27.494;2022-11-03T03:10:39;100116.44;;;17.17;100.00
56811;BME280;42691;47.234;27.494;2022-11-03T03:13:06;100106.34;;;17.11;100.00
56811;BME280;42691;47.234;27.494;2022-11-03T03:19:05;100118.25;;;17.17;100.00
56811;BME280;42691;47.234;27.494;2022-11-03T03:21:36;100105.84;;;17.19;100.00
56811;BME280;42691;47.234;27.494;2022-11-03T03:24:13;100114.66;;;17.18;100.00
56811;BME280;42691;47.234;27.494;2022-11-03T03:26:43;100119.91;;;17.18;100.00
56811;BME280;42691;47.234;27.494;2022-11-03T03:29:14;100115.63;;;17.17;100.00
56811;BME280;42691;47.234;27.494;2022-11-03T03:31:45;100118.44;;;17.14;100.00
56811;BME280;42691;47.234;27.494;2022-11-03T03:34:15;100126.88;;;17.19;100.00
56811;BME280;42691;47.234;27.494;2022-11-03T03:36:43;100124.34;;;17.17;100.00
56811;BME280;42691;47.234;27.494;2022-11-03T03:39:12;100116.56;;;17.16;100.00
56811;BME280;42691;47.234;27.494;2022-11-03T03:41:39;100098.13;;;17.03;100.00
56811;BME280;42691;47.234;27.494;2022-11-03T03:44:07;100120.03;;;17.16;100.00
56811;BME280;42691;47.234;27.494;2022-11-03T03:46:39;100115.81;;;17.14;100.00
56811;BME280;42691;47.234;27.494;2022-11-03T03:49:07;100119.09;;;17.17;100.00
56811;BME280;42691;47.234;27.494;2022-11-03T03:51:33;100087.19;;;16.97;100.00
56811;BME280;42691;47.234;27.494;2022-11-03T03:53:59;100126.75;;;17.21;100.00
56811;BME280;42691;47.234;27.494;2022-11-03T03:56:27;100119.91;;;17.18;100.00
56811;BME280;42691;47.234;27.494;2022-11-03T03:58:54;100123.28;;;17.20;100.00
56811;BME280;42691;47.234;27.494;2022-11-03T04:01:19;100123.28;;;17.20;100.00
56811;BME280;42691;47.234;27.494;2022-11-03T04:03:45;100124.97;;;17.21;100.00
56811;BME280;42691;47.234;27.494;2022-11-03T04:06:10;100123.06;;;17.23;100.00
56811;BME280;42691;47.234;27.494;2022-11-03T04:08:36;100121.41;;;17.22;100.00
56811;BME280;42691;47.234;27.494;2022-11-03T04:11:01;100121.41;;;17.22;100.00
56811;BME280;42691;47.234;27.494;2022-11-03T04:13:45;100110.88;;;17.22;100.00
56811;BME280;42691;47.234;27.494;2022-11-03T04:16:29;100109.19;;;17.21;100.00
56811;BME280;42691;47.234;27.494;2022-11-03T04:19:13;100113.63;;;17.21;100.00
56811;BME280;42691;47.234;27.494;2022-11-03T04:21:57;100113.50;;;17.22;100.00
56811;BME280;42691;47.234;27.494;2022-11-03T04:24:41;100120.34;;;17.25;100.00
56811;BME280;42691;47.234;27.494;2022-11-03T04:29:56;100114.03;;;17.27;100.00
56811;BME280;42691;47.234;27.494;2022-11-03T04:32:24;100098.69;;;17.21;100.00
56811;BME280;42691;47.234;27.494;2022-11-03T04:34:50;100114.03;;;17.27;100.00
56811;BME280;42691;47.234;27.494;2022-11-03T04:37:16;100118.56;;;17.25;100.00
56811;BME280;42691;47.234;27.494;2022-11-03T04:39:41;100120.97;;;17.28;100.00
56811;BME280;42691;47.234;27.494;2022-11-03T04:42:20;100140.31;;;17.27;100.00
56811;BME280;42691;47.234;27.494;2022-11-03T04:44:47;100144.63;;;17.28;100.00
56811;BME280;42691;47.234;27.494;2022-11-03T04:47:14;100151.88;;;17.25;100.00
56811;BME280;42691;47.234;27.494;2022-11-03T04:49:41;100149.56;;;17.20;100.00
56811;BME280;42691;47.234;27.494;2022-11-03T04:52:14;100148.09;;;17.16;100.00
56811;BME280;42691;47.234;27.494;2022-11-03T04:54:40;100148.94;;;17.16;100.00
56811;BME280;42691;47.234;27.494;2022-11-03T04:57:13;100140.94;;;17.18;100.00
56811;BME280;42691;47.234;27.494;2022-11-03T04:59:44;100142.63;;;17.19;100.00
56811;BME280;42691;47.234;27.494;2022-11-03T05:02:17;100140.84;;;17.19;100.00
56811;BME280;42691;47.234;27.494;2022-11-03T05:04:43;100149.56;;;17.20;100.00
56811;BME280;42691;47.234;27.494;2022-11-03T05:07:33;100160.84;;;17.22;100.00
56811;BME280;42691;47.234;27.494;2022-11-03T05:09:59;100159.03;;;17.23;100.00
56811;BME280;42691;47.234;27.494;2022-11-03T05:12:25;100157.34;;;17.22;100.00
56811;BME280;42691;47.234;27.494;2022-11-03T05:14:51;100160.09;;;17.20;100.00
56811;BME280;42691;47.234;27.494;2022-11-03T05:17:24;100162.00;;;17.18;100.00
56811;BME280;42691;47.234;27.494;2022-11-03T05:19:59;100158.63;;;17.16;100.00
56811;BME280;42691;47.234;27.494;2022-11-03T05:22:29;100155.25;;;17.14;100.00
56811;BME280;42691;47.234;27.494;2022-11-03T05:24:59;100160.50;;;17.14;100.00
56811;BME280;42691;47.234;27.494;2022-11-03T05:27:25;100119.06;;;16.92;100.00
56811;BME280;42691;47.234;27.494;2022-11-03T05:29:52;100163.16;;;17.14;100.00
56811;BME280;42691;47.234;27.494;2022-11-03T05:32:25;100167.88;;;17.22;100.00
56811;BME280;42691;47.234;27.494;2022-11-03T05:34:53;100161.34;;;17.14;100.00
56811;BME280;42691;47.234;27.494;2022-11-03T05:37:30;100169.13;;;17.16;100.00
56811;BME280;42691;47.234;27.494;2022-11-03T05:39:58;100171.03;;;17.14;100.00
56811;BME280;42691;47.234;27.494;2022-11-03T05:42:33;100178.19;;;17.12;100.00
56811;BME280;42691;47.234;27.494;2022-11-03T05:45:02;100188.19;;;17.19;100.00
56811;BME280;42691;47.234;27.494;2022-11-03T05:47:35;100185.66;;;17.18;100.00
56811;BME280;42691;47.234;27.494;2022-11-03T05:50:19;100185.44;;;17.21;100.00
56811;BME280;42691;47.234;27.494;2022-11-03T05:52:47;100193.31;;;17.21;100.00
56811;BME280;42691;47.234;27.494;2022-11-03T05:57:59;100202.38;;;17.17;100.00
56811;BME280;42691;47.234;27.494;2022-11-03T06:00:35;100205.94;;;17.16;100.00
56811;BME280;42691;47.234;27.494;2022-11-03T06:03:02;100211.94;;;17.18;100.00
56811;BME280;42691;47.234;27.494;2022-11-03T06:05:30;100211.09;;;17.17;100.00
56811;BME280;42691;47.234;27.494;2022-11-03T06:07:59;100225.81;;;17.20;100.00
56811;BME280;42691;47.234;27.494;2022-11-03T06:10:33;100223.00;;;17.23;100.00
56811;BME280;42691;47.234;27.494;2022-11-03T06:15:47;100218.78;;;17.33;100.00
56811;BME280;42691;47.234;27.494;2022-11-03T06:18:19;100223.22;;;17.45;100.00
56811;BME280;42691;47.234;27.494;2022-11-03T06:20:51;100212.50;;;17.48;100.00
56811;BME280;42691;47.234;27.494;2022-11-03T06:23:18;100216.72;;;17.64;100.00
56811;BME280;42691;47.234;27.494;2022-11-03T06:25:45;100213.69;;;17.70;100.00
56811;BME280;42691;47.234;27.494;2022-11-03T06:28:25;100215.88;;;17.76;100.00
56811;BME280;42691;47.234;27.494;2022-11-03T06:30:55;100218.19;;;17.80;100.00
56811;BME280;42691;47.234;27.494;2022-11-03T06:33:26;100213.59;;;17.84;100.00
56811;BME280;42691;47.234;27.494;2022-11-03T06:36:10;100208.50;;;17.94;100.00
56811;BME280;42691;47.234;27.494;2022-11-03T06:38:37;100215.25;;;17.98;100.00
56811;BME280;42691;47.234;27.494;2022-11-03T06:41:03;100222.81;;;18.02;100.00
56811;BME280;42691;47.234;27.494;2022-11-03T06:43:42;100218.16;;;18.06;100.00
56811;BME280;42691;47.234;27.494;2022-11-03T06:46:18;100211.13;;;18.06;100.00
56811;BME280;42691;47.234;27.494;2022-11-03T06:48:44;100215.22;;;18.10;100.00
56811;BME280;42691;47.234;27.494;2022-11-03T06:51:19;100208.25;;;18.09;100.00
56811;BME280;42691;47.234;27.494;2022-11-03T06:53:46;100214.78;;;18.17;100.00
56811;BME280;42691;47.234;27.494;2022-11-03T06:56:15;100223.22;;;18.22;100.00
56811;BME280;42691;47.234;27.494;2022-11-03T06:58:41;100216.78;;;18.26;100.00
56811;BME280;42691;47.234;27.494;2022-11-03T07:01:15;100230.44;;;18.31;100.00
56811;BME280;42691;47.234;27.494;2022-11-03T07:03:43;100233.09;;;18.31;100.00
56811;BME280;42691;47.234;27.494;2022-11-03T07:08:45;100224.97;;;18.34;100.00
56811;BME280;42691;47.234;27.494;2022-11-03T07:13:40;100228.94;;;18.39;100.00
56811;BME280;42691;47.234;27.494;2022-11-03T07:16:19;100220.72;;;18.44;100.00
56811;BME280;42691;47.234;27.494;2022-11-03T07:18:47;100227.78;;;18.43;100.00
56811;BME280;42691;47.234;27.494;2022-11-03T07:23:47;100227.53;;;18.47;100.00
56811;BME280;42691;47.234;27.494;2022-11-03T07:26:12;100225.75;;;18.47;100.00
56811;BME280;42691;47.234;27.494;2022-11-03T07:28:38;100209.66;;;18.39;100.00
56811;BME280;42691;47.234;27.494;2022-11-03T07:31:33;100239.25;;;18.42;100.00
56811;BME280;42691;47.234;27.494;2022-11-03T07:33:59;100237.03;;;18.49;100.00
56811;BME280;42691;47.234;27.494;2022-11-03T07:36:26;100192.44;;;18.22;100.00
56811;BME280;42691;47.234;27.494;2022-11-03T07:38:55;100242.81;;;18.54;100.00
56811;BME280;42691;47.234;27.494;2022-11-03T07:41:25;100241.63;;;18.58;100.00
56811;BME280;42691;47.234;27.494;2022-11-03T07:43:58;100242.06;;;18.65;100.00
56811;BME280;42691;47.234;27.494;2022-11-03T07:46:25;100230.16;;;18.59;100.00
56811;BME280;42691;47.234;27.494;2022-11-03T07:48:54;100240.06;;;18.68;100.00
56811;BME280;42691;47.234;27.494;2022-11-03T07:51:26;100243.41;;;18.70;100.00
56811;BME280;42691;47.234;27.494;2022-11-03T07:54:19;100235.75;;;18.67;100.00
56811;BME280;42691;47.234;27.494;2022-11-03T07:56:47;100240.78;;;18.70;100.00
56811;BME280;42691;47.234;27.494;2022-11-03T07:59:35;100241.75;;;18.69;100.00
56811;BME280;42691;47.234;27.494;2022-11-03T08:05:03;100236.00;;;18.76;100.00
56811;BME280;42691;47.234;27.494;2022-11-03T08:07:29;100231.25;;;18.81;100.00
56811;BME280;42691;47.234;27.494;2022-11-03T08:09:56;100227.19;;;18.88;100.00
56811;BME280;42691;47.234;27.494;2022-11-03T08:12:21;100218.34;;;18.89;100.00
56811;BME280;42691;47.234;27.494;2022-11-03T08:14:47;100223.59;;;18.89;100.00
56811;BME280;42691;47.234;27.494;2022-11-03T08:17:12;100215.19;;;18.84;100.00
56811;BME280;42691;47.234;27.494;2022-11-03T08:19:39;100210.16;;;18.81;100.00
56811;BME280;42691;47.234;27.494;2022-11-03T08:22:04;100224.06;;;18.83;100.00
56811;BME280;42691;47.234;27.494;2022-11-03T08:24:29;100211.50;;;18.86;100.00
56811;BME280;42691;47.234;27.494;2022-11-03T08:26:55;100214.34;;;18.83;100.00
56811;BME280;42691;47.234;27.494;2022-11-03T08:29:20;100207.06;;;18.87;100.00
56811;BME280;42691;47.234;27.494;2022-11-03T08:31:46;100211.16;;;18.91;100.00
56811;BME280;42691;47.234;27.494;2022-11-03T08:34:11;100211.38;;;18.88;100.00
56811;BME280;42691;47.234;27.494;2022-11-03T08:36:37;100223.44;;;19.03;100.00
56811;BME280;42691;47.234;27.494;2022-11-03T08:39:03;100207.84;;;19.00;100.00
56811;BME280;42691;47.234;27.494;2022-11-03T08:41:29;100222.13;;;19.09;100.00
56811;BME280;42691;47.234;27.494;2022-11-03T08:43:55;100222.50;;;19.04;100.00
56811;BME280;42691;47.234;27.494;2022-11-03T08:46:20;100218.28;;;19.01;100.00
56811;BME280;42691;47.234;27.494;2022-11-03T08:48:46;100222.88;;;19.11;100.00
56811;BME280;42691;47.234;27.494;2022-11-03T08:51:12;100224.53;;;19.12;100.00
56811;BME280;42691;47.234;27.494;2022-11-03T08:53:38;100211.56;;;18.97;100.00
56811;BME280;42691;47.234;27.494;2022-11-03T08:56:04;100220.94;;;19.01;100.00
56811;BME280;42691;47.234;27.494;2022-11-03T08:58:30;100220.56;;;19.06;100.00
56811;BME280;42691;47.234;27.494;2022-11-03T09:00:56;100219.28;;;19.12;100.00
56811;BME280;42691;47.234;27.494;2022-11-03T09:03:21;100209.31;;;19.15;100.00
56811;BME280;42691;47.234;27.494;2022-11-03T09:05:47;100202.72;;;19.10;100.00
56811;BME280;42691;47.234;27.494;2022-11-03T09:08:12;100208.94;;;19.09;100.00
56811;BME280;42691;47.234;27.494;2022-11-03T09:10:38;100210.91;;;19.18;100.00
56811;BME280;42691;47.234;27.494;2022-11-03T09:13:03;100212.22;;;19.23;100.00
56811;BME280;42691;47.234;27.494;2022-11-03T09:15:30;100205.28;;;19.22;100.00
56811;BME280;42691;47.234;27.494;2022-11-03T09:17:55;100206.00;;;19.24;100.00
56811;BME280;42691;47.234;27.494;2022-11-03T09:20:21;100205.13;;;19.13;100.00
56811;BME280;42691;47.234;27.494;2022-11-03T09:22:46;100181.03;;;19.17;100.00
56811;BME280;42691;47.234;27.494;2022-11-03T09:25:12;100192.09;;;19.22;100.00
56811;BME280;42691;47.234;27.494;2022-11-03T09:27:37;100193.53;;;19.26;100.00
56811;BME280;42691;47.234;27.494;2022-11-03T09:30:03;100200.47;;;19.27;100.00
56811;BME280;42691;47.234;27.494;2022-11-03T09:32:29;100210.38;;;19.36;100.00
56811;BME280;42691;47.234;27.494;2022-11-03T09:34:55;100195.69;;;19.32;100.00
56811;BME280;42691;47.234;27.494;2022-11-03T09:37:21;100196.69;;;19.43;100.00
56811;BME280;42691;47.234;27.494;2022-11-03T09:39:47;100191.41;;;19.43;100.00
56811;BME280;42691;47.234;27.494;2022-11-03T09:42:13;100191.19;;;19.46;100.00
56811;BME280;42691;47.234;27.494;2022-11-03T09:44:40;100174.16;;;19.39;100.00
56811;BME280;42691;47.234;27.494;2022-11-03T09:47:05;100189.63;;;19.43;100.00
56811;BME280;42691;47.234;27.494;2022-11-03T09:49:32;100197.69;;;19.53;100.00
56811;BME280;42691;47.234;27.494;2022-11-03T09:51:59;100193.84;;;19.57;100.00
56811;BME280;42691;47.234;27.494;2022-11-03T09:54:26;100188.56;;;19.57;100.00
56811;BME280;42691;47.234;27.494;2022-11-03T09:56:56;100181.22;;;19.49;100.00
56811;BME280;42691;47.234;27.494;2022-11-03T09:59:23;100177.63;;;19.50;100.00
56811;BME280;42691;47.234;27.494;2022-11-03T10:01:50;100173.91;;;19.42;100.00
56811;BME280;42691;47.234;27.494;2022-11-03T10:04:25;100182.34;;;19.58;100.00
56811;BME280;42691;47.234;27.494;2022-11-03T10:06:56;100168.91;;;19.61;100.00
56811;BME280;42691;47.234;27.494;2022-11-03T10:09:23;100180.66;;;19.68;100.00
56811;BME280;42691;47.234;27.494;2022-11-03T10:11:52;100165.06;;;19.65;100.00
56811;BME280;42691;47.234;27.494;2022-11-03T10:14:19;100155.47;;;19.64;100.00
56811;BME280;42691;47.234;27.494;2022-11-03T10:16:54;100170.59;;;19.62;100.00
56811;BME280;42691;47.234;27.494;2022-11-03T10:19:20;100127.09;;;19.32;100.00
56811;BME280;42691;47.234;27.494;2022-11-03T10:21:47;100156.41;;;19.52;100.00
56811;BME280;42691;47.234;27.494;2022-11-03T10:24:13;100169.16;;;19.58;100.00
56811;BME280;42691;47.234;27.494;2022-11-03T10:26:47;100155.72;;;19.72;100.00
56811;BME280;42691;47.234;27.494;2022-11-03T10:29:19;100161.59;;;19.76;100.00
56811;BME280;42691;47.234;27.494;2022-11-03T10:31:46;100153.22;;;19.71;100.00
56811;BME280;42691;47.234;27.494;2022-11-03T10:34:41;100155.50;;;19.75;100.00
56811;BME280;42691;47.234;27.494;2022-11-03T10:39:42;100151.53;;;19.81;100.00
56811;BME280;42691;47.234;27.494;2022-11-03T10:42:16;100145.88;;;19.85;100.00
56811;BME280;42691;47.234;27.494;2022-11-03T10:44:43;100146.84;;;19.73;100.00
56811;BME280;42691;47.234;27.494;2022-11-03T10:47:32;100143.00;;;19.77;100.00
56811;BME280;42691;47.234;27.494;2022-11-03T10:52:42;100137.84;;;19.76;100.00
56811;BME280;42691;47.234;27.494;2022-11-03T10:55:08;100134.50;;;19.74;100.00
56811;BME280;42691;47.234;27.494;2022-11-03T10:57:33;100133.78;;;19.72;100.00
56811;BME280;42691;47.234;27.494;2022-11-03T10:59:59;100123.06;;;19.62;100.00
56811;BME280;42691;47.234;27.494;2022-11-03T11:02:28;100111.19;;;19.67;100.00
56811;BME280;42691;47.234;27.494;2022-11-03T11:04:57;100120.22;;;19.76;100.00
56811;BME280;42691;47.234;27.494;2022-11-03T11:07:30;100114.19;;;19.85;100.00
56811;BME280;42691;47.234;27.494;2022-11-03T11:10:05;100102.66;;;19.86;100.00
56811;BME280;42691;47.234;27.494;2022-11-03T11:12:31;100105.06;;;19.89;100.00
56811;BME280;42691;47.234;27.494;2022-11-03T11:15:01;100102.16;;;19.92;100.00
56811;BME280;42691;47.234;27.494;2022-11-03T11:22:47;100099.78;;;19.89;100.00
56811;BME280;42691;47.234;27.494;2022-11-03T11:25:14;100098.19;;;19.98;100.00
56811;BME280;42691;47.234;27.494;2022-11-03T11:32:59;100093.75;;;19.98;100.00
56811;BME280;42691;47.234;27.494;2022-11-03T11:37:51;100095.56;;;19.98;100.00
56811;BME280;42691;47.234;27.494;2022-11-03T11:48:40;100086.28;;;20.04;100.00
56811;BME280;42691;47.234;27.494;2022-11-03T11:51:08;100086.53;;;20.12;100.00
56811;BME280;42691;47.234;27.494;2022-11-03T11:53:39;100094.38;;;19.91;100.00
56811;BME280;42691;47.234;27.494;2022-11-03T11:56:09;100087.88;;;19.95;100.00
56811;BME280;42691;47.234;27.494;2022-11-03T11:58:51;100091.28;;;19.75;100.00
56811;BME280;42691;47.234;27.494;2022-11-03T12:01:33;100081.66;;;19.85;100.00
56811;BME280;42691;47.234;27.494;2022-11-03T12:04:06;100081.44;;;19.77;100.00
56811;BME280;42691;47.234;27.494;2022-11-03T12:06:37;100070.03;;;19.87;99.82
56811;BME280;42691;47.234;27.494;2022-11-03T12:09:20;100075.81;;;19.81;98.37
56811;BME280;42691;47.234;27.494;2022-11-03T12:11:51;99945.00;;;19.12;94.97
56811;BME280;42691;47.234;27.494;2022-11-03T12:14:20;100063.81;;;19.77;96.23
56811;BME280;42691;47.234;27.494;2022-11-03T12:16:46;100065.34;;;19.91;97.84
56811;BME280;42691;47.234;27.494;2022-11-03T12:19:40;100067.59;;;19.95;99.08
56811;BME280;42691;47.234;27.494;2022-11-03T12:26:57;100063.22;;;19.74;96.81
56811;BME280;42691;47.234;27.494;2022-11-03T12:29:24;100063.09;;;19.64;97.62
56811;BME280;42691;47.234;27.494;2022-11-03T12:31:49;100063.09;;;19.64;95.42
56811;BME280;42691;47.234;27.494;2022-11-03T12:34:16;100059.03;;;19.71;97.71
56811;BME280;42691;47.234;27.494;2022-11-03T12:36:43;100049.16;;;19.84;100.00
56811;BME280;42691;47.234;27.494;2022-11-03T12:39:08;100057.03;;;19.95;100.00
56811;BME280;42691;47.234;27.494;2022-11-03T12:41:34;100053.41;;;20.08;100.00
56811;BME280;42691;47.234;27.494;2022-11-03T12:43:59;100046.47;;;19.95;97.71
56811;BME280;42691;47.234;27.494;2022-11-03T12:46:25;100054.53;;;19.94;98.61
56811;BME280;42691;47.234;27.494;2022-11-03T12:48:50;100053.56;;;19.95;100.00
56811;BME280;42691;47.234;27.494;2022-11-03T12:51:21;100049.81;;;19.97;96.38
56811;BME280;42691;47.234;27.494;2022-11-03T12:53:46;100049.81;;;19.97;96.04
56811;BME280;42691;47.234;27.494;2022-11-03T12:56:13;100058.09;;;20.04;99.90
56811;BME280;42691;47.234;27.494;2022-11-03T12:58:39;100058.91;;;20.05;97.37
56811;BME280;42691;47.234;27.494;2022-11-03T13:01:05;100054.72;;;20.02;96.50
56811;BME280;42691;47.234;27.494;2022-11-03T13:03:32;100054.97;;;19.99;94.57
56811;BME280;42691;47.234;27.494;2022-11-03T13:05:58;100053.75;;;20.03;95.84
56811;BME280;42691;47.234;27.494;2022-11-03T13:08:25;100052.50;;;19.86;91.42
56811;BME280;42691;47.234;27.494;2022-11-03T13:10:50;100041.94;;;19.86;92.31
56811;BME280;42691;47.234;27.494;2022-11-03T13:13:16;100043.63;;;19.87;91.03
56811;BME280;42691;47.234;27.494;2022-11-03T13:15:42;100041.94;;;19.86;94.37
56811;BME280;42691;47.234;27.494;2022-11-03T13:18:07;100045.50;;;19.96;92.99
56811;BME280;42691;47.234;27.494;2022-11-03T13:20:33;100043.97;;;19.94;95.91
56811;BME280;42691;47.234;27.494;2022-11-03T13:23:00;100048.28;;;19.95;97.10
56811;BME280;42691;47.234;27.494;2022-11-03T13:25:26;100042.28;;;19.93;92.13
56811;BME280;42691;47.234;27.494;2022-11-03T13:27:53;100045.53;;;19.85;89.62
56811;BME280;42691;47.234;27.494;2022-11-03T13:30:23;100045.22;;;19.79;88.17
56811;BME280;42691;47.234;27.494;2022-11-03T13:32:49;100044.38;;;19.78;88.98
56811;BME280;42691;47.234;27.494;2022-11-03T13:35:14;100040.50;;;19.82;91.35
56811;BME280;42691;47.234;27.494;2022-11-03T13:37:40;100052.28;;;19.78;88.15
56811;BME280;42691;47.234;27.494;2022-11-03T13:40:07;100052.50;;;19.86;89.18
56811;BME280;42691;47.234;27.494;2022-11-03T13:42:32;100048.19;;;19.85;87.33
56811;BME280;42691;47.234;27.494;2022-11-03T13:44:58;100047.59;;;19.82;87.14
56811;BME280;42691;47.234;27.494;2022-11-03T13:47:23;100051.06;;;19.82;88.70
56811;BME280;42691;47.234;27.494;2022-11-03T13:49:49;100048.22;;;19.74;87.55